Time,TemperatureF,DewpointF,PressureIn,WindDirection,WindDirectionDegrees,WindSpeedMPH,WindSpeedGustMPH,Humidity,HourlyPrecipIn,Conditions,Clouds,dailyrainin,SoftwareType,DateUTC
2013-01-07 00:01:00,13.0,9.5,30.30,West,259,0.0,0.0,86,0.00,,---,0.00,VWS V14.01,2013-01-07 06:01:00,
2013-01-07 00:06:00,12.8,9.3,30.30,WSW,258,0.0,0.0,86,0.00,,---,0.00,VWS V14.01,2013-01-07 06:06:00,
2013-01-07 00:11:00,12.8,9.5,30.30,West,259,0.0,0.0,86,0.00,,---,0.00,VWS V14.01,2013-01-07 06:11:00,
2013-01-07 00:16:00,12.7,9.4,30.30,West,259,0.0,0.0,86,0.00,,---,0.00,VWS V14.01,2013-01-07 06:16:00,
2013-01-07 00:21:00,12.6,9.3,30.30,West,259,0.0,0.0,86,0.00,,---,0.00,VWS V14.01,2013-01-07 06:21:00,
2013-01-07 00:26:00,12.5,9.2,30.30,WSW,258,0.0,0.0,86,0.00,,---,0.00,VWS V14.01,2013-01-07 06:26:00,
2013-01-07 00:31:00,12.4,9.1,30.30,WSW,257,0.0,0.0,86,0.00,,---,0.00,VWS V14.01,2013-01-07 06:31:00,
2013-01-07 00:36:00,12.9,9.9,30.30,SSE,161,0.0,0.0,87,0.00,,---,0.00,VWS V14.01,2013-01-07 06:36:00,
2013-01-07 00:41:00,13.2,10.2,30.30,SSE,161,0.0,0.0,87,0.00,,---,0.00,VWS V14.01,2013-01-07 06:41:00,
2013-01-07 00:46:00,13.2,9.9,30.30,SSE,161,0.0,0.0,86,0.00,,---,0.00,VWS V14.01,2013-01-07 06:46:00,
2013-01-07 00:51:00,13.2,9.9,30.30,SSE,160,0.0,0.0,86,0.00,,---,0.00,VWS V14.01,2013-01-07 06:51:00,
2013-01-07 00:56:00,13.2,9.9,30.30,SSE,160,0.0,0.0,86,0.00,,---,0.00,VWS V14.01,2013-01-07 06:56:00,
2013-01-07 01:01:00,13.2,9.9,30.30,SSE,160,0.0,0.0,86,0.00,,---,0.00,VWS V14.01,2013-01-07 07:01:00,
2013-01-07 01:06:00,13.3,10.0,30.30,SSE,161,0.0,0.0,86,0.00,,---,0.00,VWS V14.01,2013-01-07 07:06:00,
2013-01-07 01:11:00,13.4,10.1,30.30,SSE,160,0.0,0.0,86,0.00,,---,0.00,VWS V14.01,2013-01-07 07:11:00,
2013-01-07 01:16:00,13.5,10.2,30.30,SSE,160,0.0,0.0,86,0.00,,---,0.00,VWS V14.01,2013-01-07 07:16:00,
2013-01-07 01:21:00,13.5,10.2,30.30,SSE,160,0.0,0.0,86,0.00,,---,0.00,VWS V14.01,2013-01-07 07:21:00,
2013-01-07 01:26:00,13.5,10.2,30.30,SSE,160,0.0,0.0,86,0.00,,---,0.00,VWS V14.01,2013-01-07 07:26:00,
2013-01-07 01:31:00,13.5,10.2,30.29,SSE,160,0.0,0.0,86,0.00,,---,0.00,VWS V14.01,2013-01-07 07:31:00,
2013-01-07 01:36:00,13.3,10.0,30.30,SSE,160,0.0,0.0,86,0.00,,---,0.00,VWS V14.01,2013-01-07 07:36:00,
2013-01-07 01:41:00,13.3,10.0,30.29,SSE,160,0.0,0.0,86,0.00,,---,0.00,VWS V14.01,2013-01-07 07:41:00,
2013-01-07 01:46:00,13.4,10.1,30.29,SSE,160,0.0,0.0,86,0.00,,---,0.00,VWS V14.01,2013-01-07 07:46:00,
2013-01-07 01:51:00,13.3,10.0,30.29,SSE,161,0.0,0.0,86,0.00,,---,0.00,VWS V14.01,2013-01-07 07:51:00,
2013-01-07 01:56:00,13.3,10.0,30.30,SSE,160,0.0,0.0,86,0.00,,---,0.00,VWS V14.01,2013-01-07 07:56:00,
2013-01-07 02:01:00,13.3,10.0,30.30,SSE,160,0.0,0.0,86,0.00,,---,0.00,VWS V14.01,2013-01-07 08:01:00,
2013-01-07 02:06:00,13.1,9.6,30.29,SSE,160,0.0,0.0,86,0.00,,---,0.00,VWS V14.01,2013-01-07 08:06:00,
2013-01-07 02:11:00,13.0,9.5,30.29,SSE,160,0.0,0.0,86,0.00,,---,0.00,VWS V14.01,2013-01-07 08:11:00,
2013-01-07 02:16:00,12.8,9.3,30.29,SSE,161,0.0,0.0,86,0.00,,---,0.00,VWS V14.01,2013-01-07 08:16:00,
2013-01-07 02:21:00,13.0,9.7,30.29,SSE,160,0.0,0.0,86,0.00,,---,0.00,VWS V14.01,2013-01-07 08:21:00,
2013-01-07 02:26:00,13.1,9.8,30.30,SSE,160,0.0,0.0,86,0.00,,---,0.00,VWS V14.01,2013-01-07 08:26:00,
2013-01-07 02:31:00,13.6,10.6,30.29,SE,143,0.0,0.0,87,0.00,,---,0.00,VWS V14.01,2013-01-07 08:31:00,
2013-01-07 02:36:00,14.0,11.0,30.30,SE,142,0.0,0.0,87,0.00,,---,0.00,VWS V14.01,2013-01-07 08:36:00,
2013-01-07 02:41:00,14.2,11.2,30.30,SE,143,0.0,0.0,87,0.00,,---,0.00,VWS V14.01,2013-01-07 08:41:00,
2013-01-07 02:46:00,14.2,10.9,30.30,SE,142,0.0,0.0,86,0.00,,---,0.00,VWS V14.01,2013-01-07 08:46:00,
2013-01-07 02:51:00,14.2,10.9,30.30,SE,143,0.0,0.0,86,0.00,,---,0.00,VWS V14.01,2013-01-07 08:51:00,
2013-01-07 02:56:00,14.5,11.2,30.30,SE,142,0.0,0.0,86,0.00,,---,0.00,VWS V14.01,2013-01-07 08:56:00,
2013-01-07 03:01:00,14.6,11.3,30.30,SE,142,0.0,0.0,86,0.00,,---,0.00,VWS V14.01,2013-01-07 09:01:00,
2013-01-07 03:06:00,14.7,11.4,30.30,SE,142,0.0,0.0,86,0.00,,---,0.00,VWS V14.01,2013-01-07 09:06:00,
2013-01-07 03:11:00,14.7,11.2,30.30,SE,143,0.0,0.0,86,0.00,,---,0.00,VWS V14.01,2013-01-07 09:11:00,
2013-01-07 03:16:00,14.6,11.1,30.30,SE,142,0.0,0.0,86,0.00,,---,0.00,VWS V14.01,2013-01-07 09:16:00,
2013-01-07 03:21:00,14.5,11.0,30.30,SE,142,0.0,0.0,86,0.00,,---,0.00,VWS V14.01,2013-01-07 09:21:00,
2013-01-07 03:26:00,14.4,10.9,30.30,SE,143,0.0,0.0,86,0.00,,---,0.00,VWS V14.01,2013-01-07 09:26:00,
2013-01-07 03:31:00,14.4,10.9,30.29,SE,142,0.0,0.0,86,0.00,,---,0.00,VWS V14.01,2013-01-07 09:31:00,
2013-01-07 03:36:00,14.4,10.9,30.29,South,183,0.0,0.0,86,0.00,,---,0.00,VWS V14.01,2013-01-07 09:36:00,
2013-01-07 03:41:00,14.8,11.5,30.29,SSE,165,0.0,0.0,86,0.00,,---,0.00,VWS V14.01,2013-01-07 09:41:00,
2013-01-07 03:46:00,15.3,12.0,30.29,ESE,107,0.0,0.0,86,0.00,,---,0.00,VWS V14.01,2013-01-07 09:46:00,
2013-01-07 03:51:00,15.7,12.4,30.29,SSW,200,1.8,3.6,86,0.00,,---,0.00,VWS V14.01,2013-01-07 09:51:00,
2013-01-07 03:56:00,16.2,12.6,30.29,SSW,207,0.0,1.8,86,0.00,,---,0.00,VWS V14.01,2013-01-07 09:56:00,
2013-01-07 04:01:00,16.5,12.9,30.29,SW,219,0.0,1.8,86,0.00,,---,0.00,VWS V14.01,2013-01-07 10:01:00,
2013-01-07 04:06:00,16.8,13.0,30.29,SW,233,1.8,1.8,85,0.00,,---,0.00,VWS V14.01,2013-01-07 10:06:00,
2013-01-07 04:11:00,17.1,13.3,30.29,SW,216,0.0,1.8,85,0.00,,---,0.00,VWS V14.01,2013-01-07 10:11:00,
2013-01-07 04:16:00,17.3,13.2,30.28,South,181,1.8,5.4,84,0.00,,---,0.00,VWS V14.01,2013-01-07 10:16:00,
2013-01-07 04:21:00,17.5,13.4,30.28,SSW,204,1.8,5.4,84,0.00,,---,0.00,VWS V14.01,2013-01-07 10:21:00,
2013-01-07 04:26:00,17.7,13.6,30.28,SSW,195,3.6,5.4,84,0.00,,---,0.00,VWS V14.01,2013-01-07 10:26:00,
2013-01-07 04:31:00,17.9,13.8,30.28,SSW,211,3.6,9.0,84,0.00,,---,0.00,VWS V14.01,2013-01-07 10:31:00,
2013-01-07 04:36:00,18.2,13.9,30.28,SSW,201,1.8,1.8,83,0.00,,---,0.00,VWS V14.01,2013-01-07 10:36:00,
2013-01-07 04:41:00,18.2,13.9,30.28,SW,218,0.0,1.8,83,0.00,,---,0.00,VWS V14.01,2013-01-07 10:41:00,
2013-01-07 04:46:00,18.3,13.9,30.28,SSW,207,3.6,5.4,83,0.00,,---,0.00,VWS V14.01,2013-01-07 10:46:00,
2013-01-07 04:51:00,18.3,13.9,30.28,SSW,198,0.0,1.8,83,0.00,,---,0.00,VWS V14.01,2013-01-07 10:51:00,
2013-01-07 04:56:00,18.4,14.1,30.28,SSW,194,1.8,3.6,83,0.00,,---,0.00,VWS V14.01,2013-01-07 10:56:00,
2013-01-07 05:01:00,18.6,14.2,30.27,SSW,210,0.0,0.0,83,0.00,,---,0.00,VWS V14.01,2013-01-07 11:01:00,
2013-01-07 05:06:00,18.6,14.2,30.27,SW,229,0.0,0.0,83,0.00,,---,0.00,VWS V14.01,2013-01-07 11:06:00,
2013-01-07 05:11:00,18.6,14.2,30.27,SSE,161,0.0,0.0,83,0.00,,---,0.00,VWS V14.01,2013-01-07 11:11:00,
2013-01-07 05:16:00,18.6,14.2,30.27,SSE,148,0.0,0.0,83,0.00,,---,0.00,VWS V14.01,2013-01-07 11:16:00,
2013-01-07 05:21:00,18.6,14.5,30.27,SW,225,0.0,0.0,84,0.00,,---,0.00,VWS V14.01,2013-01-07 11:21:00,
2013-01-07 05:26:00,18.7,14.3,30.27,SSW,212,0.0,0.0,83,0.00,,---,0.00,VWS V14.01,2013-01-07 11:26:00,
2013-01-07 05:31:00,18.8,14.4,30.27,SW,214,0.0,0.0,83,0.00,,---,0.00,VWS V14.01,2013-01-07 11:31:00,
2013-01-07 05:36:00,18.7,14.3,30.27,SSW,207,0.0,0.0,83,0.00,,---,0.00,VWS V14.01,2013-01-07 11:36:00,
2013-01-07 05:41:00,18.6,14.2,30.27,SW,217,0.0,1.8,83,0.00,,---,0.00,VWS V14.01,2013-01-07 11:41:00,
2013-01-07 05:46:00,18.3,13.9,30.27,SW,218,0.0,0.0,83,0.00,,---,0.00,VWS V14.01,2013-01-07 11:46:00,
2013-01-07 05:51:00,18.2,13.9,30.27,SSW,201,0.0,0.0,83,0.00,,---,0.00,VWS V14.01,2013-01-07 11:51:00,
2013-01-07 05:56:00,18.1,13.8,30.27,SSW,204,0.0,1.8,83,0.00,,---,0.00,VWS V14.01,2013-01-07 11:56:00,
2013-01-07 06:01:00,18.1,13.8,30.27,SSW,203,0.0,1.8,83,0.00,,---,0.00,VWS V14.01,2013-01-07 12:01:00,
2013-01-07 06:06:00,18.2,14.1,30.27,South,184,1.8,3.6,84,0.00,,---,0.00,VWS V14.01,2013-01-07 12:06:00,
2013-01-07 06:11:00,18.2,13.9,30.27,SSW,193,0.0,1.8,83,0.00,,---,0.00,VWS V14.01,2013-01-07 12:11:00,
2013-01-07 06:16:00,18.1,13.8,30.26,SSW,200,0.0,0.0,83,0.00,,---,0.00,VWS V14.01,2013-01-07 12:16:00,
2013-01-07 06:21:00,17.9,13.6,30.26,SSW,200,0.0,0.0,83,0.00,,---,0.00,VWS V14.01,2013-01-07 12:21:00,
2013-01-07 06:26:00,17.8,13.5,30.26,WSW,246,0.0,0.0,83,0.00,,---,0.00,VWS V14.01,2013-01-07 12:26:00,
2013-01-07 06:31:00,17.8,13.7,30.26,SSW,210,0.0,0.0,84,0.00,,---,0.00,VWS V14.01,2013-01-07 12:31:00,
2013-01-07 06:36:00,18.1,14.0,30.26,SSW,200,1.8,3.6,84,0.00,,---,0.00,VWS V14.01,2013-01-07 12:36:00,
2013-01-07 06:41:00,18.6,14.5,30.26,SSW,207,5.4,5.4,84,0.00,,---,0.00,VWS V14.01,2013-01-07 12:41:00,
2013-01-07 06:46:00,19.2,15.1,30.26,WSW,258,3.6,3.6,84,0.00,,---,0.00,VWS V14.01,2013-01-07 12:46:00,
2013-01-07 06:51:00,19.6,15.2,30.25,SSW,201,1.8,3.6,83,0.00,,---,0.00,VWS V14.01,2013-01-07 12:51:00,
2013-01-07 06:56:00,19.9,15.3,30.25,SSW,198,5.4,5.4,82,0.00,,---,0.00,VWS V14.01,2013-01-07 12:56:00,
2013-01-07 07:01:00,19.9,15.3,30.25,SW,224,9.0,9.0,82,0.00,,---,0.00,VWS V14.01,2013-01-07 13:01:00,
2013-01-07 07:06:00,20.1,15.4,30.25,SW,221,10.8,10.8,82,0.00,,---,0.00,VWS V14.01,2013-01-07 13:06:00,
2013-01-07 07:11:00,20.5,15.8,30.24,SE,144,1.8,1.8,82,0.00,,---,0.00,VWS V14.01,2013-01-07 13:11:00,
2013-01-07 07:16:00,20.6,15.9,30.24,SSE,166,1.8,3.6,82,0.00,,---,0.00,VWS V14.01,2013-01-07 13:16:00,
2013-01-07 07:21:00,20.7,16.0,30.24,SSW,195,3.6,3.6,82,0.00,,---,0.00,VWS V14.01,2013-01-07 13:21:00,
2013-01-07 07:26:00,20.8,16.1,30.24,SSW,198,3.6,7.2,82,0.00,,---,0.00,VWS V14.01,2013-01-07 13:26:00,
2013-01-07 07:31:00,20.9,16.0,30.24,SSE,160,1.8,3.6,81,0.00,,---,0.00,VWS V14.01,2013-01-07 13:31:00,
2013-01-07 07:36:00,21.0,16.1,30.24,SW,236,7.2,7.2,81,0.00,,---,0.00,VWS V14.01,2013-01-07 13:36:00,
2013-01-07 07:41:00,21.2,16.3,30.24,SSW,200,3.6,5.4,81,0.00,,---,0.00,VWS V14.01,2013-01-07 13:41:00,
2013-01-07 07:46:00,21.2,16.3,30.24,South,177,5.4,10.8,81,0.00,,---,0.00,VWS V14.01,2013-01-07 13:46:00,
2013-01-07 07:51:00,21.3,16.4,30.24,SSW,201,3.6,3.6,81,0.00,,---,0.00,VWS V14.01,2013-01-07 13:51:00,
2013-01-07 07:56:00,21.3,16.4,30.24,SW,228,7.2,7.2,81,0.00,,---,0.00,VWS V14.01,2013-01-07 13:56:00,
2013-01-07 08:01:00,21.4,16.5,30.24,SW,215,5.4,10.8,81,0.00,,---,0.00,VWS V14.01,2013-01-07 14:01:00,
2013-01-07 08:06:00,21.6,16.7,30.24,SSW,201,5.4,5.4,81,0.00,,---,0.00,VWS V14.01,2013-01-07 14:06:00,
2013-01-07 08:11:00,21.8,16.9,30.24,WSW,251,5.4,7.2,81,0.00,,---,0.00,VWS V14.01,2013-01-07 14:11:00,
2013-01-07 08:16:00,22.1,16.9,30.24,South,187,5.4,7.2,80,0.00,,---,0.00,VWS V14.01,2013-01-07 14:16:00,
2013-01-07 08:21:00,22.5,17.3,30.24,SSW,194,3.6,5.4,80,0.00,,---,0.00,VWS V14.01,2013-01-07 14:21:00,
2013-01-07 08:26:00,22.9,17.7,30.24,SW,231,7.2,10.8,80,0.00,,---,0.00,VWS V14.01,2013-01-07 14:26:00,
2013-01-07 08:31:00,23.2,17.7,30.24,SW,215,7.2,10.8,79,0.00,,---,0.00,VWS V14.01,2013-01-07 14:31:00,
2013-01-07 08:36:00,23.5,18.0,30.24,WSW,242,5.4,9.0,79,0.00,,---,0.00,VWS V14.01,2013-01-07 14:36:00,
2013-01-07 08:41:00,23.8,18.3,30.24,West,263,5.4,9.0,79,0.00,,---,0.00,VWS V14.01,2013-01-07 14:41:00,
2013-01-07 08:46:00,24.1,18.3,30.24,SSW,197,5.4,7.2,78,0.00,,---,0.00,VWS V14.01,2013-01-07 14:46:00,
2013-01-07 08:51:00,24.6,18.8,30.24,SSW,198,5.4,7.2,78,0.00,,---,0.00,VWS V14.01,2013-01-07 14:51:00,
2013-01-07 08:56:00,25.0,19.2,30.24,South,191,9.0,9.0,78,0.00,,---,0.00,VWS V14.01,2013-01-07 14:56:00,
2013-01-07 09:01:00,25.4,19.3,30.24,SW,221,1.8,5.4,77,0.00,,---,0.00,VWS V14.01,2013-01-07 15:01:00,
2013-01-07 09:06:00,25.7,19.6,30.24,South,188,5.4,5.4,77,0.00,,---,0.00,VWS V14.01,2013-01-07 15:06:00,
2013-01-07 09:11:00,26.0,19.9,30.24,SW,221,1.8,5.4,77,0.00,,---,0.00,VWS V14.01,2013-01-07 15:11:00,
2013-01-07 09:16:00,26.4,20.0,30.24,ESE,105,3.6,5.4,76,0.00,,---,0.00,VWS V14.01,2013-01-07 15:16:00,
2013-01-07 09:21:00,26.8,20.3,30.24,SW,231,5.4,7.2,76,0.00,,---,0.00,VWS V14.01,2013-01-07 15:21:00,
2013-01-07 09:26:00,27.1,20.4,30.24,South,176,9.0,9.0,75,0.00,,---,0.00,VWS V14.01,2013-01-07 15:26:00,
2013-01-07 09:31:00,27.4,20.6,30.23,SSW,201,7.2,9.0,75,0.00,,---,0.00,VWS V14.01,2013-01-07 15:31:00,
2013-01-07 09:36:00,27.8,20.7,30.23,SSE,165,7.2,10.8,74,0.00,,---,0.00,VWS V14.01,2013-01-07 15:36:00,
2013-01-07 09:41:00,28.2,21.1,30.23,SSE,158,10.8,12.6,74,0.00,,---,0.00,VWS V14.01,2013-01-07 15:41:00,
2013-01-07 09:46:00,28.6,21.2,30.23,SW,214,3.6,3.6,73,0.00,,---,0.00,VWS V14.01,2013-01-07 15:46:00,
2013-01-07 09:51:00,29.0,21.6,30.23,SSW,205,3.6,5.4,73,0.00,,---,0.00,VWS V14.01,2013-01-07 15:51:00,
2013-01-07 09:56:00,29.4,21.4,30.23,South,189,5.4,5.4,72,0.00,,---,0.00,VWS V14.01,2013-01-07 15:56:00,
2013-01-07 10:01:00,29.7,21.7,30.23,SW,219,1.8,3.6,72,0.00,,---,0.00,VWS V14.01,2013-01-07 16:01:00,
2013-01-07 10:06:00,30.2,22.1,30.23,SW,232,10.8,12.6,72,0.00,,---,0.00,VWS V14.01,2013-01-07 16:06:00,
2013-01-07 10:11:00,30.6,22.2,30.23,SW,231,5.4,9.0,71,0.00,,---,0.00,VWS V14.01,2013-01-07 16:11:00,
2013-01-07 10:16:00,30.9,22.2,30.23,SW,218,1.8,5.4,70,0.00,,---,0.00,VWS V14.01,2013-01-07 16:16:00,
2013-01-07 10:21:00,31.2,22.2,30.23,SW,226,1.8,3.6,69,0.00,,---,0.00,VWS V14.01,2013-01-07 16:21:00,
2013-01-07 10:26:00,31.8,22.7,30.23,SE,127,5.4,5.4,69,0.00,,---,0.00,VWS V14.01,2013-01-07 16:26:00,
2013-01-07 10:31:00,32.1,22.4,30.23,SW,225,1.8,3.6,67,0.00,,---,0.00,VWS V14.01,2013-01-07 16:31:00,
2013-01-07 10:36:00,32.6,22.5,30.23,SW,222,10.8,10.8,66,0.00,,---,0.00,VWS V14.01,2013-01-07 16:36:00,
2013-01-07 10:41:00,32.8,22.4,30.23,SW,233,5.4,7.2,65,0.00,,---,0.00,VWS V14.01,2013-01-07 16:41:00,
2013-01-07 10:46:00,33.2,23.1,30.22,South,188,12.6,12.6,66,0.00,,---,0.00,VWS V14.01,2013-01-07 16:46:00,
2013-01-07 10:51:00,33.4,23.0,30.21,WSW,253,7.2,9.0,65,0.00,,---,0.00,VWS V14.01,2013-01-07 16:51:00,
2013-01-07 10:56:00,33.8,23.0,30.21,SW,214,12.6,14.4,64,0.00,,---,0.00,VWS V14.01,2013-01-07 16:56:00,
2013-01-07 11:01:00,33.9,22.7,30.21,SW,224,7.2,12.6,63,0.00,,---,0.00,VWS V14.01,2013-01-07 17:01:00,
2013-01-07 11:06:00,34.1,22.9,30.20,SW,219,5.4,7.2,63,0.00,,---,0.00,VWS V14.01,2013-01-07 17:06:00,
2013-01-07 11:11:00,34.2,23.0,30.19,SW,231,3.6,3.6,63,0.00,,---,0.00,VWS V14.01,2013-01-07 17:11:00,
2013-01-07 11:16:00,34.6,23.0,30.19,SSW,195,5.4,5.4,62,0.00,,---,0.00,VWS V14.01,2013-01-07 17:16:00,
2013-01-07 11:21:00,34.7,23.1,30.18,WSW,256,9.0,9.0,62,0.00,,---,0.00,VWS V14.01,2013-01-07 17:21:00,
2013-01-07 11:26:00,34.9,23.7,30.17,SSE,167,9.0,9.0,63,0.00,,---,0.00,VWS V14.01,2013-01-07 17:26:00,
2013-01-07 11:31:00,35.4,23.8,30.17,SW,217,5.4,5.4,62,0.00,,---,0.00,VWS V14.01,2013-01-07 17:31:00,
2013-01-07 11:36:00,35.8,23.8,30.17,SSW,208,14.4,14.4,61,0.00,,---,0.00,VWS V14.01,2013-01-07 17:36:00,
2013-01-07 11:41:00,36.1,23.8,30.16,South,176,5.4,7.2,60,0.00,,---,0.00,VWS V14.01,2013-01-07 17:41:00,
2013-01-07 11:45:00,36.3,24.3,30.15,SSW,197,9.0,9.0,61,0.00,,---,0.00,VWS V14.01,2013-01-07 17:45:00,
2013-01-07 11:50:00,36.5,24.1,30.14,South,174,14.4,14.4,60,0.00,,---,0.00,VWS V14.01,2013-01-07 17:50:00,
2013-01-07 11:55:00,36.9,24.1,30.14,SSW,198,5.4,19.8,60,0.00,,---,0.00,VWS V14.01,2013-01-07 17:55:00,
2013-01-07 12:00:00,37.3,24.5,30.13,South,169,5.4,18.0,60,0.00,,---,0.00,VWS V14.01,2013-01-07 18:00:00,
2013-01-07 12:05:00,37.6,24.4,30.13,South,190,12.6,25.2,59,0.00,,---,0.00,VWS V14.01,2013-01-07 18:05:00,
2013-01-07 12:10:00,38.1,24.9,30.13,West,264,3.6,18.0,59,0.00,,---,0.00,VWS V14.01,2013-01-07 18:10:00,
2013-01-07 12:15:00,38.6,25.0,30.12,SSW,205,16.2,19.8,58,0.00,,---,0.00,VWS V14.01,2013-01-07 18:15:00,
2013-01-07 12:20:00,39.0,24.6,30.12,WSW,237,18.0,28.8,56,0.00,,---,0.00,VWS V14.01,2013-01-07 18:20:00,
2013-01-07 12:25:00,39.1,24.3,30.12,SSW,194,21.6,28.8,55,0.00,,---,0.00,VWS V14.01,2013-01-07 18:25:00,
2013-01-07 12:30:00,39.2,23.5,30.11,SW,220,12.6,30.6,53,0.00,,---,0.00,VWS V14.01,2013-01-07 18:30:00,
2013-01-07 12:35:00,39.4,24.5,30.11,SW,222,3.6,21.6,55,0.00,,---,0.00,VWS V14.01,2013-01-07 18:35:00,
2013-01-07 12:40:00,39.6,24.7,30.12,WSW,240,10.8,16.2,55,0.00,,---,0.00,VWS V14.01,2013-01-07 18:40:00,
2013-01-07 12:45:00,39.6,24.7,30.11,South,186,3.6,18.0,55,0.00,,---,0.00,VWS V14.01,2013-01-07 18:45:00,
2013-01-07 12:50:00,39.7,24.8,30.12,WSW,249,1.8,16.2,55,0.00,,---,0.00,VWS V14.01,2013-01-07 18:50:00,
2013-01-07 12:55:00,40.0,25.1,30.11,South,180,12.6,18.0,55,0.00,,---,0.00,VWS V14.01,2013-01-07 18:55:00,
2013-01-07 13:00:00,39.7,24.4,30.11,SW,217,10.8,21.6,54,0.00,,---,0.00,VWS V14.01,2013-01-07 19:00:00,
2013-01-07 13:05:00,39.7,24.8,30.11,SSW,211,9.0,18.0,55,0.00,,---,0.00,VWS V14.01,2013-01-07 19:05:00,
2013-01-07 13:10:00,39.7,25.2,30.10,SW,235,9.0,21.6,56,0.00,,---,0.00,VWS V14.01,2013-01-07 19:10:00,
2013-01-07 13:15:00,39.9,25.4,30.11,WNW,284,5.4,19.8,56,0.00,,---,0.00,VWS V14.01,2013-01-07 19:15:00,
2013-01-07 13:20:00,39.9,25.0,30.11,WSW,248,9.0,14.4,55,0.00,,---,0.00,VWS V14.01,2013-01-07 19:20:00,
2013-01-07 13:25:00,40.0,25.5,30.11,SW,214,5.4,16.2,56,0.00,,---,0.00,VWS V14.01,2013-01-07 19:25:00,
2013-01-07 13:30:00,40.1,25.6,30.11,SSW,212,10.8,16.2,56,0.00,,---,0.00,VWS V14.01,2013-01-07 19:30:00,
2013-01-07 13:35:00,40.1,25.6,30.11,SSE,165,10.8,23.4,56,0.00,,---,0.00,VWS V14.01,2013-01-07 19:35:00,
2013-01-07 13:40:00,40.4,25.9,30.11,SE,134,10.8,21.6,56,0.00,,---,0.00,VWS V14.01,2013-01-07 19:40:00,
2013-01-07 13:45:00,40.1,25.6,30.11,WSW,239,7.2,18.0,56,0.01,,---,0.01,VWS V14.01,2013-01-07 19:45:00,
2013-01-07 13:50:00,39.8,25.7,30.10,WNW,300,1.8,27.0,57,0.01,,---,0.01,VWS V14.01,2013-01-07 19:50:00,
2013-01-07 13:55:00,39.8,25.3,30.10,WSW,256,5.4,16.2,56,0.01,,---,0.01,VWS V14.01,2013-01-07 19:55:00,
2013-01-07 14:00:00,39.7,25.6,30.10,West,262,5.4,27.0,57,0.01,,---,0.01,VWS V14.01,2013-01-07 20:00:00,
2013-01-07 14:05:00,39.9,25.8,30.10,SSE,149,5.4,16.2,57,0.01,,---,0.01,VWS V14.01,2013-01-07 20:05:00,
2013-01-07 14:10:00,39.8,25.7,30.10,SW,226,5.4,19.8,57,0.01,,---,0.01,VWS V14.01,2013-01-07 20:10:00,
2013-01-07 14:15:00,39.7,26.0,30.09,SSW,201,7.2,21.6,58,0.01,,---,0.01,VWS V14.01,2013-01-07 20:15:00,
2013-01-07 14:19:00,39.7,26.0,30.09,SW,214,10.8,21.6,58,0.01,,---,0.01,VWS V14.01,2013-01-07 20:19:00,
2013-01-07 14:24:00,39.8,26.1,30.09,South,186,9.0,23.4,58,0.01,,---,0.01,VWS V14.01,2013-01-07 20:24:00,
2013-01-07 14:29:00,39.8,26.1,30.09,South,186,5.4,18.0,58,0.01,,---,0.01,VWS V14.01,2013-01-07 20:29:00,
2013-01-07 14:34:00,39.7,26.0,30.09,SSE,158,12.6,18.0,58,0.01,,---,0.01,VWS V14.01,2013-01-07 20:34:00,
2013-01-07 14:39:00,39.6,25.9,30.09,WSW,256,7.2,19.8,58,0.01,,---,0.01,VWS V14.01,2013-01-07 20:39:00,
2013-01-07 14:44:00,39.3,26.0,30.08,WSW,246,7.2,27.0,59,0.01,,---,0.01,VWS V14.01,2013-01-07 20:44:00,
2013-01-07 14:50:00,39.2,25.9,30.08,WSW,248,7.2,19.8,59,0.00,,---,0.01,VWS V14.01,2013-01-07 20:50:00,
2013-01-07 14:55:00,39.2,25.9,30.08,SW,214,7.2,21.6,59,0.00,,---,0.01,VWS V14.01,2013-01-07 20:55:00,
2013-01-07 15:00:00,39.2,25.9,30.07,SSW,208,12.6,25.2,59,0.00,,---,0.01,VWS V14.01,2013-01-07 21:00:00,
2013-01-07 15:05:00,39.1,25.8,30.07,SW,224,9.0,23.4,59,0.00,,---,0.01,VWS V14.01,2013-01-07 21:05:00,
2013-01-07 15:10:00,39.0,26.5,30.07,South,181,9.0,23.4,60,0.00,,---,0.01,VWS V14.01,2013-01-07 21:10:00,
2013-01-07 15:15:00,38.9,26.4,30.07,SSW,193,10.8,21.6,60,0.00,,---,0.01,VWS V14.01,2013-01-07 21:15:00,
2013-01-07 15:20:00,38.9,26.4,30.07,SW,231,9.0,21.6,60,0.00,,---,0.01,VWS V14.01,2013-01-07 21:20:00,
2013-01-07 15:25:00,38.7,26.2,30.07,SSW,201,9.0,27.0,60,0.00,,---,0.01,VWS V14.01,2013-01-07 21:25:00,
2013-01-07 15:30:00,38.5,26.4,30.08,SW,219,7.2,14.4,61,0.00,,---,0.01,VWS V14.01,2013-01-07 21:30:00,
2013-01-07 15:35:00,38.3,26.6,30.07,SSW,194,9.0,19.8,62,0.00,,---,0.01,VWS V14.01,2013-01-07 21:35:00,
2013-01-07 15:40:00,38.1,26.4,30.07,SSW,204,5.4,23.4,62,0.00,,---,0.01,VWS V14.01,2013-01-07 21:40:00,
2013-01-07 15:45:00,37.9,26.5,30.07,South,179,14.4,19.8,63,0.00,,---,0.01,VWS V14.01,2013-01-07 21:45:00,
2013-01-07 15:50:00,37.8,26.4,30.07,South,177,5.4,19.8,63,0.00,,---,0.01,VWS V14.01,2013-01-07 21:50:00,
2013-01-07 15:55:00,37.7,26.7,30.07,SW,222,5.4,14.4,64,0.00,,---,0.01,VWS V14.01,2013-01-07 21:55:00,
2013-01-07 16:00:00,37.5,26.5,30.07,South,180,7.2,14.4,64,0.00,,---,0.01,VWS V14.01,2013-01-07 22:00:00,
2013-01-07 16:05:00,37.4,26.4,30.07,West,260,3.6,14.4,64,0.00,,---,0.01,VWS V14.01,2013-01-07 22:05:00,
2013-01-07 16:10:00,37.4,26.4,30.07,WSW,238,9.0,19.8,64,0.00,,---,0.01,VWS V14.01,2013-01-07 22:10:00,
2013-01-07 16:15:00,37.3,26.7,30.06,SW,228,9.0,16.2,65,0.00,,---,0.01,VWS V14.01,2013-01-07 22:15:00,
2013-01-07 16:20:00,37.1,26.5,30.06,West,260,16.2,19.8,65,0.00,,---,0.01,VWS V14.01,2013-01-07 22:20:00,
2013-01-07 16:25:00,37.0,26.4,30.06,SSW,192,12.6,16.2,65,0.00,,---,0.01,VWS V14.01,2013-01-07 22:25:00,
2013-01-07 16:30:00,36.9,26.6,30.06,WSW,239,3.6,14.4,66,0.00,,---,0.01,VWS V14.01,2013-01-07 22:30:00,
2013-01-07 16:35:00,36.7,26.4,30.07,SW,229,3.6,10.8,66,0.00,,---,0.01,VWS V14.01,2013-01-07 22:35:00,
2013-01-07 16:40:00,36.7,26.1,30.07,SW,222,0.0,12.6,65,0.00,,---,0.01,VWS V14.01,2013-01-07 22:40:00,
2013-01-07 16:45:00,36.7,26.4,30.08,SW,214,5.4,9.0,66,0.00,,---,0.01,VWS V14.01,2013-01-07 22:45:00,
2013-01-07 16:50:00,36.4,26.8,30.08,WSW,240,0.0,5.4,68,0.00,,---,0.01,VWS V14.01,2013-01-07 22:50:00,
2013-01-07 16:55:00,36.0,26.8,30.08,SW,217,1.8,7.2,69,0.00,,---,0.01,VWS V14.01,2013-01-07 22:55:00,
2013-01-07 17:00:00,35.7,26.8,30.08,WSW,253,3.6,5.4,70,0.00,,---,0.01,VWS V14.01,2013-01-07 23:00:00,
2013-01-07 17:05:00,35.5,26.6,30.09,WSW,256,0.0,5.4,70,0.00,,---,0.01,VWS V14.01,2013-01-07 23:05:00,
2013-01-07 17:10:00,35.4,26.5,30.09,WSW,250,3.6,10.8,70,0.00,,---,0.01,VWS V14.01,2013-01-07 23:10:00,
2013-01-07 17:15:00,35.3,26.7,30.09,SSW,204,3.6,7.2,71,0.00,,---,0.01,VWS V14.01,2013-01-07 23:15:00,
2013-01-07 17:20:00,35.3,26.7,30.09,SSW,208,0.0,7.2,71,0.00,,---,0.01,VWS V14.01,2013-01-07 23:20:00,
2013-01-07 17:25:00,35.2,26.6,30.09,South,179,1.8,9.0,71,0.00,,---,0.01,VWS V14.01,2013-01-07 23:25:00,
2013-01-07 17:30:00,35.0,26.8,30.09,West,259,1.8,7.2,72,0.00,,---,0.01,VWS V14.01,2013-01-07 23:30:00,
2013-01-07 17:35:00,35.0,26.8,30.09,SSW,195,5.4,9.0,72,0.00,,---,0.01,VWS V14.01,2013-01-07 23:35:00,
2013-01-07 17:40:00,34.9,27.0,30.09,SW,233,9.0,9.0,73,0.00,,---,0.01,VWS V14.01,2013-01-07 23:40:00,
2013-01-07 17:45:00,34.9,27.0,30.09,WSW,240,5.4,10.8,73,0.00,,---,0.01,VWS V14.01,2013-01-07 23:45:00,
2013-01-07 17:50:00,34.9,26.7,30.09,SW,222,7.2,10.8,72,0.00,,---,0.01,VWS V14.01,2013-01-07 23:50:00,
2013-01-07 17:55:00,35.0,26.8,30.08,SSE,166,5.4,12.6,72,0.00,,---,0.01,VWS V14.01,2013-01-07 23:55:00,
2013-01-07 18:00:00,35.0,26.8,30.08,South,172,5.4,12.6,72,0.00,,---,0.01,VWS V14.01,2013-01-08 00:00:00,
2013-01-07 18:05:00,35.0,26.8,30.08,SSW,200,3.6,10.8,72,0.00,,---,0.01,VWS V14.01,2013-01-08 00:05:00,
2013-01-07 18:10:00,34.9,27.0,30.08,SW,217,0.0,14.4,73,0.00,,---,0.01,VWS V14.01,2013-01-08 00:10:00,
2013-01-07 18:15:00,34.9,27.0,30.08,WSW,250,3.6,14.4,73,0.00,,---,0.01,VWS V14.01,2013-01-08 00:15:00,
2013-01-07 18:20:00,34.9,27.0,30.08,SW,217,3.6,12.6,73,0.00,,---,0.01,VWS V14.01,2013-01-08 00:20:00,
2013-01-07 18:25:00,34.8,26.9,30.08,South,181,3.6,12.6,73,0.00,,---,0.01,VWS V14.01,2013-01-08 00:25:00,
2013-01-07 18:30:00,34.7,26.8,30.08,WSW,255,3.6,9.0,73,0.00,,---,0.01,VWS V14.01,2013-01-08 00:30:00,
2013-01-07 18:35:00,34.7,26.8,30.08,SW,224,1.8,7.2,73,0.00,,---,0.01,VWS V14.01,2013-01-08 00:35:00,
2013-01-07 18:40:00,34.6,26.7,30.08,SSW,207,3.6,10.8,73,0.00,,---,0.01,VWS V14.01,2013-01-08 00:40:00,
2013-01-07 18:45:00,34.5,26.9,30.08,SSW,198,1.8,10.8,73,0.00,,---,0.01,VWS V14.01,2013-01-08 00:45:00,
2013-01-07 18:50:00,34.4,26.8,30.08,SW,234,5.4,7.2,73,0.00,,---,0.01,VWS V14.01,2013-01-08 00:50:00,
2013-01-07 18:55:00,34.3,26.7,30.08,SSE,165,9.0,10.8,73,0.00,,---,0.01,VWS V14.01,2013-01-08 00:55:00,
2013-01-07 19:00:00,34.2,26.9,30.08,SW,219,3.6,12.6,74,0.00,,---,0.01,VWS V14.01,2013-01-08 01:00:00,
2013-01-07 19:05:00,34.2,26.9,30.08,South,184,3.6,12.6,74,0.00,,---,0.01,VWS V14.01,2013-01-08 01:05:00,
2013-01-07 19:10:00,34.1,26.8,30.08,SW,219,0.0,10.8,74,0.00,,---,0.01,VWS V14.01,2013-01-08 01:10:00,
2013-01-07 19:15:00,34.0,26.7,30.07,SSW,198,7.2,16.2,74,0.00,,---,0.01,VWS V14.01,2013-01-08 01:15:00,
2013-01-07 19:20:00,33.9,26.6,30.07,South,182,3.6,14.4,74,0.00,,---,0.01,VWS V14.01,2013-01-08 01:20:00,
2013-01-07 19:25:00,33.8,26.8,30.07,WSW,240,3.6,12.6,75,0.00,,---,0.01,VWS V14.01,2013-01-08 01:25:00,
2013-01-07 19:30:00,33.7,26.7,30.07,SW,219,5.4,10.8,75,0.00,,---,0.01,VWS V14.01,2013-01-08 01:30:00,
2013-01-07 19:35:00,33.7,26.7,30.07,West,278,0.0,7.2,75,0.00,,---,0.01,VWS V14.01,2013-01-08 01:35:00,
2013-01-07 19:40:00,33.6,26.6,30.07,SSW,194,7.2,7.2,75,0.00,,---,0.01,VWS V14.01,2013-01-08 01:40:00,
2013-01-07 19:45:00,33.6,26.6,30.07,SSW,211,9.0,12.6,75,0.00,,---,0.01,VWS V14.01,2013-01-08 01:45:00,
2013-01-07 19:50:00,33.6,26.6,30.07,SW,236,3.6,10.8,75,0.00,,---,0.01,VWS V14.01,2013-01-08 01:50:00,
2013-01-07 19:55:00,33.7,26.7,30.07,SW,224,3.6,9.0,75,0.00,,---,0.01,VWS V14.01,2013-01-08 01:55:00,
2013-01-07 20:00:00,33.7,26.7,30.07,SW,224,1.8,10.8,75,0.00,,---,0.01,VWS V14.01,2013-01-08 02:00:00,
2013-01-07 20:05:00,33.6,26.9,30.07,SW,224,7.2,10.8,76,0.00,,---,0.01,VWS V14.01,2013-01-08 02:05:00,
2013-01-07 20:10:00,33.6,26.9,30.07,SW,219,5.4,9.0,76,0.00,,---,0.01,VWS V14.01,2013-01-08 02:10:00,
2013-01-07 20:15:00,33.5,26.8,30.07,SW,236,1.8,10.8,76,0.00,,---,0.01,VWS V14.01,2013-01-08 02:15:00,
2013-01-07 20:20:00,33.4,26.7,30.07,SSW,198,1.8,7.2,76,0.00,,---,0.01,VWS V14.01,2013-01-08 02:20:00,
2013-01-07 20:25:00,33.3,26.6,30.08,SSW,207,1.8,5.4,76,0.00,,---,0.01,VWS V14.01,2013-01-08 02:25:00,
2013-01-07 20:30:00,33.2,26.5,30.08,SW,215,0.0,7.2,76,0.00,,---,0.01,VWS V14.01,2013-01-08 02:30:00,
2013-01-07 20:35:00,33.1,26.8,30.08,SSW,204,1.8,9.0,77,0.00,,---,0.01,VWS V14.01,2013-01-08 02:35:00,
2013-01-07 20:40:00,33.0,26.6,30.08,SW,221,1.8,12.6,77,0.00,,---,0.01,VWS V14.01,2013-01-08 02:40:00,
2013-01-07 20:45:00,32.9,26.5,30.08,SW,225,1.8,7.2,77,0.00,,---,0.01,VWS V14.01,2013-01-08 02:45:00,
2013-01-07 20:50:00,33.0,26.6,30.08,SSW,204,0.0,16.2,77,0.00,,---,0.01,VWS V14.01,2013-01-08 02:50:00,
2013-01-07 20:55:00,33.0,26.6,30.08,SSW,195,5.4,10.8,77,0.00,,---,0.01,VWS V14.01,2013-01-08 02:55:00,
2013-01-07 21:00:00,33.0,26.6,30.08,South,174,3.6,10.8,77,0.00,,---,0.01,VWS V14.01,2013-01-08 03:00:00,
2013-01-07 21:05:00,33.0,26.6,30.08,SSW,212,1.8,7.2,77,0.00,,---,0.01,VWS V14.01,2013-01-08 03:05:00,
2013-01-07 21:10:00,32.9,26.5,30.08,South,180,5.4,7.2,77,0.00,,---,0.01,VWS V14.01,2013-01-08 03:10:00,
2013-01-07 21:15:00,32.8,26.5,30.08,SSW,207,7.2,9.0,77,0.00,,---,0.01,VWS V14.01,2013-01-08 03:15:00,
2013-01-07 21:20:00,32.7,26.4,30.07,SW,215,1.8,7.2,77,0.00,,---,0.01,VWS V14.01,2013-01-08 03:20:00,
2013-01-07 21:25:00,32.6,26.3,30.07,SSW,207,3.6,3.6,77,0.00,,---,0.01,VWS V14.01,2013-01-08 03:25:00,
2013-01-07 21:30:00,32.6,26.3,30.07,SSE,155,0.0,7.2,77,0.00,,---,0.01,VWS V14.01,2013-01-08 03:30:00,
2013-01-07 21:35:00,32.5,26.5,30.07,WSW,238,5.4,9.0,78,0.00,,---,0.01,VWS V14.01,2013-01-08 03:35:00,
2013-01-07 21:40:00,32.5,26.5,30.07,South,191,1.8,9.0,78,0.00,,---,0.01,VWS V14.01,2013-01-08 03:40:00,
2013-01-07 21:45:00,32.3,26.3,30.07,SW,214,1.8,5.4,78,0.00,,---,0.01,VWS V14.01,2013-01-08 03:45:00,
2013-01-07 21:50:00,32.2,26.2,30.07,South,191,1.8,9.0,78,0.00,,---,0.01,VWS V14.01,2013-01-08 03:50:00,
2013-01-07 21:55:00,32.2,26.2,30.07,SW,214,3.6,9.0,78,0.00,,---,0.01,VWS V14.01,2013-01-08 03:55:00,
2013-01-07 22:00:00,32.2,26.2,30.07,WSW,243,1.8,10.8,78,0.00,,---,0.01,VWS V14.01,2013-01-08 04:00:00,
2013-01-07 22:05:00,32.1,26.1,30.08,WSW,238,0.0,9.0,78,0.00,,---,0.01,VWS V14.01,2013-01-08 04:05:00,
2013-01-07 22:10:00,32.0,26.0,30.08,SSE,160,1.8,3.6,78,0.00,,---,0.01,VWS V14.01,2013-01-08 04:10:00,
2013-01-07 22:15:00,31.9,26.1,30.08,SW,230,0.0,7.2,79,0.00,,---,0.01,VWS V14.01,2013-01-08 04:15:00,
2013-01-07 22:20:00,31.9,26.1,30.08,WSW,246,1.8,9.0,79,0.00,,---,0.01,VWS V14.01,2013-01-08 04:20:00,
2013-01-07 22:25:00,31.9,26.1,30.08,SW,224,3.6,7.2,79,0.00,,---,0.01,VWS V14.01,2013-01-08 04:25:00,
2013-01-07 22:30:00,31.9,26.1,30.08,SW,219,1.8,10.8,79,0.00,,---,0.01,VWS V14.01,2013-01-08 04:30:00,
2013-01-07 22:35:00,32.0,26.2,30.07,SW,228,1.8,10.8,79,0.00,,---,0.01,VWS V14.01,2013-01-08 04:35:00,
2013-01-07 22:40:00,32.0,26.2,30.07,SW,219,3.6,9.0,79,0.00,,---,0.01,VWS V14.01,2013-01-08 04:40:00,
2013-01-07 22:45:00,32.1,26.1,30.07,SSW,203,3.6,12.6,78,0.00,,---,0.01,VWS V14.01,2013-01-08 04:45:00,
2013-01-07 22:50:00,32.1,26.1,30.07,SW,217,1.8,10.8,78,0.00,,---,0.01,VWS V14.01,2013-01-08 04:50:00,
2013-01-07 22:55:00,32.2,26.2,30.07,South,187,7.2,12.6,78,0.00,,---,0.01,VWS V14.01,2013-01-08 04:55:00,
2013-01-07 23:00:00,32.2,26.2,30.07,SSW,210,9.0,12.6,78,0.00,,---,0.01,VWS V14.01,2013-01-08 05:00:00,
2013-01-07 23:02:00,32.2,26.2,30.07,South,191,0.0,7.2,78,0.00,,---,0.01,VWS V14.01,2013-01-08 05:02:00,
2013-01-07 23:07:00,32.3,26.3,30.07,SSW,212,9.0,9.0,78,0.00,,---,0.01,VWS V14.01,2013-01-08 05:07:00,
2013-01-07 23:12:00,32.3,26.3,30.07,North,1,1.8,7.2,78,0.00,,---,0.01,VWS V14.01,2013-01-08 05:12:00,
2013-01-07 23:17:00,32.3,26.3,30.07,South,170,5.4,7.2,78,0.00,,---,0.01,VWS V14.01,2013-01-08 05:17:00,
2013-01-07 23:22:00,32.3,26.3,30.07,SSW,205,3.6,5.4,78,0.00,,---,0.01,VWS V14.01,2013-01-08 05:22:00,
2013-01-07 23:27:00,32.2,26.2,30.07,SSE,160,3.6,5.4,78,0.00,,---,0.01,VWS V14.01,2013-01-08 05:27:00,
2013-01-07 23:32:00,32.2,26.2,30.07,SSE,166,3.6,3.6,78,0.00,,---,0.01,VWS V14.01,2013-01-08 05:32:00,
2013-01-07 23:36:00,32.1,26.1,30.07,SW,225,1.8,5.4,78,0.00,,---,0.01,VWS V14.01,2013-01-08 05:36:00,
2013-01-07 23:41:00,32.0,26.0,30.07,SSW,201,1.8,1.8,78,0.00,,---,0.01,VWS V14.01,2013-01-08 05:41:00,
2013-01-07 23:46:00,31.9,25.9,30.07,South,180,3.6,5.4,78,0.00,,---,0.01,VWS V14.01,2013-01-08 05:46:00,
2013-01-07 23:51:00,31.9,25.9,30.07,South,171,1.8,7.2,78,0.00,,---,0.01,VWS V14.01,2013-01-08 05:51:00,
2013-01-07 23:56:00,31.8,26.1,30.07,SSW,193,3.6,3.6,79,0.00,,---,0.01,VWS V14.01,2013-01-08 05:56:00,